sensor_id;sensor_type;location;lat;lon;timestamp;P1;durP1;ratioP1;P2;durP2;ratioP2
60257;SDS011;46115;44.484;11.314;2022-11-15T00:02:49;28.73;;;19.75;;
60257;SDS011;46115;44.484;11.314;2022-11-15T00:07:09;29.50;;;18.92;;
60257;SDS011;46115;44.484;11.314;2022-11-15T00:11:30;30.08;;;20.40;;
60257;SDS011;46115;44.484;11.314;2022-11-15T00:15:52;32.78;;;21.20;;
60257;SDS011;46115;44.484;11.314;2022-11-15T00:20:17;32.42;;;21.65;;
60257;SDS011;46115;44.484;11.314;2022-11-15T00:24:38;35.78;;;21.00;;
60257;SDS011;46115;44.484;11.314;2022-11-15T00:28:58;32.90;;;20.33;;
60257;SDS011;46115;44.484;11.314;2022-11-15T00:33:21;30.48;;;19.33;;
60257;SDS011;46115;44.484;11.314;2022-11-15T00:37:42;28.33;;;19.42;;
60257;SDS011;46115;44.484;11.314;2022-11-15T00:42:03;30.05;;;19.65;;
60257;SDS011;46115;44.484;11.314;2022-11-15T00:46:24;27.45;;;18.95;;
60257;SDS011;46115;44.484;11.314;2022-11-15T00:50:46;26.85;;;17.92;;
60257;SDS011;46115;44.484;11.314;2022-11-15T00:55:08;26.00;;;17.42;;
60257;SDS011;46115;44.484;11.314;2022-11-15T00:59:34;28.77;;;17.90;;
60257;SDS011;46115;44.484;11.314;2022-11-15T01:03:55;28.83;;;19.35;;
60257;SDS011;46115;44.484;11.314;2022-11-15T01:08:17;27.50;;;18.92;;
60257;SDS011;46115;44.484;11.314;2022-11-15T01:12:38;29.65;;;20.27;;
60257;SDS011;46115;44.484;11.314;2022-11-15T01:16:59;32.72;;;21.17;;
60257;SDS011;46115;44.484;11.314;2022-11-15T01:21:19;32.47;;;20.63;;
60257;SDS011;46115;44.484;11.314;2022-11-15T01:25:42;31.05;;;19.50;;
60257;SDS011;46115;44.484;11.314;2022-11-15T01:30:03;27.65;;;19.20;;
60257;SDS011;46115;44.484;11.314;2022-11-15T01:34:25;30.50;;;20.00;;
60257;SDS011;46115;44.484;11.314;2022-11-15T01:38:46;27.83;;;18.48;;
60257;SDS011;46115;44.484;11.314;2022-11-15T01:47:48;29.55;;;19.30;;
60257;SDS011;46115;44.484;11.314;2022-11-15T01:52:14;31.38;;;18.98;;
60257;SDS011;46115;44.484;11.314;2022-11-15T01:56:40;26.95;;;17.92;;
60257;SDS011;46115;44.484;11.314;2022-11-15T02:01:08;29.40;;;18.48;;
60257;SDS011;46115;44.484;11.314;2022-11-15T02:05:29;29.10;;;19.05;;
60257;SDS011;46115;44.484;11.314;2022-11-15T02:09:51;29.03;;;18.37;;
60257;SDS011;46115;44.484;11.314;2022-11-15T02:14:12;27.53;;;18.07;;
60257;SDS011;46115;44.484;11.314;2022-11-15T02:18:37;27.50;;;17.38;;
60257;SDS011;46115;44.484;11.314;2022-11-15T02:33:00;25.50;;;16.60;;
60257;SDS011;46115;44.484;11.314;2022-11-15T02:37:30;23.98;;;16.85;;
60257;SDS011;46115;44.484;11.314;2022-11-15T02:41:57;27.05;;;17.42;;
60257;SDS011;46115;44.484;11.314;2022-11-15T02:46:23;27.38;;;18.48;;
60257;SDS011;46115;44.484;11.314;2022-11-15T02:51:04;26.23;;;17.15;;
60257;SDS011;46115;44.484;11.314;2022-11-15T02:55:30;24.88;;;16.73;;
60257;SDS011;46115;44.484;11.314;2022-11-15T02:59:56;24.13;;;16.08;;
60257;SDS011;46115;44.484;11.314;2022-11-15T03:04:33;24.30;;;16.98;;
60257;SDS011;46115;44.484;11.314;2022-11-15T03:13:30;25.85;;;17.45;;
60257;SDS011;46115;44.484;11.314;2022-11-15T03:17:58;27.85;;;18.13;;
60257;SDS011;46115;44.484;11.314;2022-11-15T03:22:23;26.55;;;17.65;;
60257;SDS011;46115;44.484;11.314;2022-11-15T03:26:48;25.50;;;17.30;;
60257;SDS011;46115;44.484;11.314;2022-11-15T03:31:10;23.95;;;17.23;;
60257;SDS011;46115;44.484;11.314;2022-11-15T03:35:52;26.13;;;16.93;;
60257;SDS011;46115;44.484;11.314;2022-11-15T03:40:15;24.40;;;16.80;;
60257;SDS011;46115;44.484;11.314;2022-11-15T03:44:41;27.27;;;17.70;;
60257;SDS011;46115;44.484;11.314;2022-11-15T03:49:08;27.75;;;17.98;;
60257;SDS011;46115;44.484;11.314;2022-11-15T03:53:32;29.60;;;18.77;;
60257;SDS011;46115;44.484;11.314;2022-11-15T03:57:53;30.45;;;18.15;;
60257;SDS011;46115;44.484;11.314;2022-11-15T04:02:18;26.52;;;16.60;;
60257;SDS011;46115;44.484;11.314;2022-11-15T04:06:39;23.75;;;16.25;;
60257;SDS011;46115;44.484;11.314;2022-11-15T04:11:00;25.92;;;17.45;;
60257;SDS011;46115;44.484;11.314;2022-11-15T04:15:21;25.50;;;17.00;;
60257;SDS011;46115;44.484;11.314;2022-11-15T04:19:46;23.58;;;15.35;;
60257;SDS011;46115;44.484;11.314;2022-11-15T04:24:24;20.65;;;14.13;;
60257;SDS011;46115;44.484;11.314;2022-11-15T04:28:45;23.05;;;15.50;;
60257;SDS011;46115;44.484;11.314;2022-11-15T04:33:21;21.70;;;15.15;;
60257;SDS011;46115;44.484;11.314;2022-11-15T04:37:43;22.80;;;15.25;;
60257;SDS011;46115;44.484;11.314;2022-11-15T04:42:04;23.35;;;15.68;;
60257;SDS011;46115;44.484;11.314;2022-11-15T04:46:25;25.85;;;16.92;;
60257;SDS011;46115;44.484;11.314;2022-11-15T04:50:47;24.75;;;16.20;;
60257;SDS011;46115;44.484;11.314;2022-11-15T04:55:10;22.65;;;16.00;;
60257;SDS011;46115;44.484;11.314;2022-11-15T04:59:31;22.52;;;15.38;;
60257;SDS011;46115;44.484;11.314;2022-11-15T05:03:52;24.30;;;15.73;;
60257;SDS011;46115;44.484;11.314;2022-11-15T05:08:31;27.27;;;15.88;;
60257;SDS011;46115;44.484;11.314;2022-11-15T05:12:53;21.92;;;14.63;;
60257;SDS011;46115;44.484;11.314;2022-11-15T05:17:14;22.80;;;15.00;;
60257;SDS011;46115;44.484;11.314;2022-11-15T05:21:35;23.17;;;15.32;;
60257;SDS011;46115;44.484;11.314;2022-11-15T05:25:58;20.27;;;14.43;;
60257;SDS011;46115;44.484;11.314;2022-11-15T05:30:20;18.20;;;13.55;;
60257;SDS011;46115;44.484;11.314;2022-11-15T05:34:41;22.02;;;14.52;;
60257;SDS011;46115;44.484;11.314;2022-11-15T05:39:02;21.90;;;14.85;;
60257;SDS011;46115;44.484;11.314;2022-11-15T05:43:24;21.90;;;14.43;;
60257;SDS011;46115;44.484;11.314;2022-11-15T05:47:47;19.13;;;13.95;;
60257;SDS011;46115;44.484;11.314;2022-11-15T05:52:10;18.05;;;13.55;;
60257;SDS011;46115;44.484;11.314;2022-11-15T05:56:35;21.13;;;14.45;;
60257;SDS011;46115;44.484;11.314;2022-11-15T06:00:56;19.45;;;14.05;;
60257;SDS011;46115;44.484;11.314;2022-11-15T06:05:18;21.15;;;14.27;;
60257;SDS011;46115;44.484;11.314;2022-11-15T06:09:38;19.52;;;13.82;;
60257;SDS011;46115;44.484;11.314;2022-11-15T06:14:00;19.27;;;13.88;;
60257;SDS011;46115;44.484;11.314;2022-11-15T06:18:20;20.95;;;14.20;;
60257;SDS011;46115;44.484;11.314;2022-11-15T06:22:43;18.30;;;13.13;;
60257;SDS011;46115;44.484;11.314;2022-11-15T06:27:04;17.63;;;12.70;;
60257;SDS011;46115;44.484;11.314;2022-11-15T06:31:25;19.17;;;13.45;;
60257;SDS011;46115;44.484;11.314;2022-11-15T06:35:45;16.63;;;13.07;;
60257;SDS011;46115;44.484;11.314;2022-11-15T06:40:08;19.25;;;13.65;;
60257;SDS011;46115;44.484;11.314;2022-11-15T06:44:30;21.17;;;13.40;;
60257;SDS011;46115;44.484;11.314;2022-11-15T06:48:51;18.20;;;14.10;;
60257;SDS011;46115;44.484;11.314;2022-11-15T06:53:13;19.15;;;14.68;;
60257;SDS011;46115;44.484;11.314;2022-11-15T06:57:35;23.25;;;15.50;;
60257;SDS011;46115;44.484;11.314;2022-11-15T07:01:57;19.77;;;14.43;;
60257;SDS011;46115;44.484;11.314;2022-11-15T07:06:18;19.77;;;14.07;;
60257;SDS011;46115;44.484;11.314;2022-11-15T07:10:38;18.98;;;13.93;;
60257;SDS011;46115;44.484;11.314;2022-11-15T07:15:00;18.50;;;14.13;;
60257;SDS011;46115;44.484;11.314;2022-11-15T07:19:21;17.45;;;13.38;;
60257;SDS011;46115;44.484;11.314;2022-11-15T07:23:42;17.88;;;13.23;;
60257;SDS011;46115;44.484;11.314;2022-11-15T07:28:04;17.73;;;12.40;;
60257;SDS011;46115;44.484;11.314;2022-11-15T07:32:26;17.85;;;12.98;;
60257;SDS011;46115;44.484;11.314;2022-11-15T07:41:08;16.92;;;12.80;;
60257;SDS011;46115;44.484;11.314;2022-11-15T07:45:29;17.75;;;12.77;;
60257;SDS011;46115;44.484;11.314;2022-11-15T07:49:54;16.63;;;12.63;;
60257;SDS011;46115;44.484;11.314;2022-11-15T07:54:14;17.73;;;13.40;;
60257;SDS011;46115;44.484;11.314;2022-11-15T07:58:35;17.17;;;12.88;;
60257;SDS011;46115;44.484;11.314;2022-11-15T08:03:03;16.40;;;12.93;;
60257;SDS011;46115;44.484;11.314;2022-11-15T08:07:27;18.10;;;13.45;;
60257;SDS011;46115;44.484;11.314;2022-11-15T08:11:49;18.70;;;13.00;;
60257;SDS011;46115;44.484;11.314;2022-11-15T08:16:10;17.60;;;13.52;;
60257;SDS011;46115;44.484;11.314;2022-11-15T08:20:31;17.55;;;13.02;;
60257;SDS011;46115;44.484;11.314;2022-11-15T08:24:55;17.80;;;13.32;;
60257;SDS011;46115;44.484;11.314;2022-11-15T08:29:15;18.58;;;13.15;;
60257;SDS011;46115;44.484;11.314;2022-11-15T08:33:36;19.77;;;13.55;;
60257;SDS011;46115;44.484;11.314;2022-11-15T08:37:57;17.85;;;13.68;;
60257;SDS011;46115;44.484;11.314;2022-11-15T08:42:19;18.08;;;13.45;;
60257;SDS011;46115;44.484;11.314;2022-11-15T08:46:40;19.33;;;13.55;;
60257;SDS011;46115;44.484;11.314;2022-11-15T08:51:01;19.77;;;14.20;;
60257;SDS011;46115;44.484;11.314;2022-11-15T08:55:22;20.55;;;14.75;;
60257;SDS011;46115;44.484;11.314;2022-11-15T08:59:45;19.88;;;14.60;;
60257;SDS011;46115;44.484;11.314;2022-11-15T09:04:06;19.58;;;13.60;;
60257;SDS011;46115;44.484;11.314;2022-11-15T09:08:29;18.25;;;13.93;;
60257;SDS011;46115;44.484;11.314;2022-11-15T09:12:51;16.70;;;13.48;;
60257;SDS011;46115;44.484;11.314;2022-11-15T09:17:14;17.85;;;14.63;;
60257;SDS011;46115;44.484;11.314;2022-11-15T09:21:34;18.50;;;14.13;;
60257;SDS011;46115;44.484;11.314;2022-11-15T09:25:58;23.67;;;14.10;;
60257;SDS011;46115;44.484;11.314;2022-11-15T09:30:19;18.13;;;13.20;;
60257;SDS011;46115;44.484;11.314;2022-11-15T09:34:42;19.80;;;13.98;;
60257;SDS011;46115;44.484;11.314;2022-11-15T09:39:03;18.75;;;13.18;;
60257;SDS011;46115;44.484;11.314;2022-11-15T09:43:27;19.20;;;14.73;;
60257;SDS011;46115;44.484;11.314;2022-11-15T09:47:59;23.63;;;16.83;;
60257;SDS011;46115;44.484;11.314;2022-11-15T09:52:27;29.88;;;19.27;;
60257;SDS011;46115;44.484;11.314;2022-11-15T09:56:30;38.42;;;19.98;;
60257;SDS011;46115;44.484;11.314;2022-11-15T10:00:35;29.35;;;18.35;;
60257;SDS011;46115;44.484;11.314;2022-11-15T10:04:42;41.25;;;25.52;;
60257;SDS011;46115;44.484;11.314;2022-11-15T10:08:53;42.42;;;29.77;;
60257;SDS011;46115;44.484;11.314;2022-11-15T10:13:00;45.83;;;30.92;;
60257;SDS011;46115;44.484;11.314;2022-11-15T10:21:37;41.05;;;29.10;;
60257;SDS011;46115;44.484;11.314;2022-11-15T10:25:49;39.20;;;28.83;;
60257;SDS011;46115;44.484;11.314;2022-11-15T10:29:54;40.13;;;30.27;;
60257;SDS011;46115;44.484;11.314;2022-11-15T10:38:06;39.85;;;30.02;;
60257;SDS011;46115;44.484;11.314;2022-11-15T10:42:25;42.00;;;30.35;;
60257;SDS011;46115;44.484;11.314;2022-11-15T10:46:28;40.95;;;29.85;;
60257;SDS011;46115;44.484;11.314;2022-11-15T10:50:31;39.38;;;30.80;;
60257;SDS011;46115;44.484;11.314;2022-11-15T10:54:34;39.90;;;29.85;;
60257;SDS011;46115;44.484;11.314;2022-11-15T10:58:41;46.47;;;32.55;;
60257;SDS011;46115;44.484;11.314;2022-11-15T11:02:55;48.92;;;32.42;;
60257;SDS011;46115;44.484;11.314;2022-11-15T11:06:59;47.85;;;33.03;;
60257;SDS011;46115;44.484;11.314;2022-11-15T11:11:02;53.22;;;34.78;;
60257;SDS011;46115;44.484;11.314;2022-11-15T11:15:10;51.60;;;35.45;;
60257;SDS011;46115;44.484;11.314;2022-11-15T11:19:17;45.72;;;33.35;;
60257;SDS011;46115;44.484;11.314;2022-11-15T11:23:34;50.88;;;34.33;;
60257;SDS011;46115;44.484;11.314;2022-11-15T11:27:47;44.63;;;32.85;;
60257;SDS011;46115;44.484;11.314;2022-11-15T11:32:05;46.25;;;32.78;;
60257;SDS011;46115;44.484;11.314;2022-11-15T11:36:23;51.17;;;34.67;;
60257;SDS011;46115;44.484;11.314;2022-11-15T11:40:30;47.80;;;33.85;;
60257;SDS011;46115;44.484;11.314;2022-11-15T11:44:39;50.38;;;34.47;;
60257;SDS011;46115;44.484;11.314;2022-11-15T11:48:52;49.65;;;33.72;;
60257;SDS011;46115;44.484;11.314;2022-11-15T11:53:01;50.70;;;34.67;;
60257;SDS011;46115;44.484;11.314;2022-11-15T11:57:11;56.25;;;36.50;;
60257;SDS011;46115;44.484;11.314;2022-11-15T12:01:20;56.45;;;36.67;;
60257;SDS011;46115;44.484;11.314;2022-11-15T12:05:27;54.53;;;36.60;;
60257;SDS011;46115;44.484;11.314;2022-11-15T12:09:36;58.88;;;37.00;;
60257;SDS011;46115;44.484;11.314;2022-11-15T12:13:41;57.70;;;36.80;;
60257;SDS011;46115;44.484;11.314;2022-11-15T12:17:45;59.33;;;36.92;;
60257;SDS011;46115;44.484;11.314;2022-11-15T12:21:50;64.47;;;38.78;;
60257;SDS011;46115;44.484;11.314;2022-11-15T12:26:00;57.92;;;35.33;;
60257;SDS011;46115;44.484;11.314;2022-11-15T12:30:08;61.22;;;37.22;;
60257;SDS011;46115;44.484;11.314;2022-11-15T12:34:28;58.30;;;35.83;;
60257;SDS011;46115;44.484;11.314;2022-11-15T12:38:55;59.90;;;36.67;;
60257;SDS011;46115;44.484;11.314;2022-11-15T12:43:03;61.42;;;38.30;;
60257;SDS011;46115;44.484;11.314;2022-11-15T12:47:26;61.10;;;37.78;;
60257;SDS011;46115;44.484;11.314;2022-11-15T12:56:16;54.72;;;33.50;;
60257;SDS011;46115;44.484;11.314;2022-11-15T13:00:36;56.30;;;34.55;;
60257;SDS011;46115;44.484;11.314;2022-11-15T13:04:40;57.33;;;35.03;;
60257;SDS011;46115;44.484;11.314;2022-11-15T13:08:47;58.95;;;35.08;;
60257;SDS011;46115;44.484;11.314;2022-11-15T13:12:54;60.92;;;36.13;;
60257;SDS011;46115;44.484;11.314;2022-11-15T13:16:58;60.90;;;34.90;;
60257;SDS011;46115;44.484;11.314;2022-11-15T13:21:02;67.13;;;37.92;;
60257;SDS011;46115;44.484;11.314;2022-11-15T13:25:44;64.43;;;36.83;;
60257;SDS011;46115;44.484;11.314;2022-11-15T13:29:56;64.38;;;37.17;;
60257;SDS011;46115;44.484;11.314;2022-11-15T13:33:59;57.30;;;34.35;;
60257;SDS011;46115;44.484;11.314;2022-11-15T13:38:04;66.32;;;36.00;;
60257;SDS011;46115;44.484;11.314;2022-11-15T13:42:10;60.97;;;37.00;;
60257;SDS011;46115;44.484;11.314;2022-11-15T13:46:19;63.53;;;35.53;;
60257;SDS011;46115;44.484;11.314;2022-11-15T13:50:23;58.13;;;34.85;;
60257;SDS011;46115;44.484;11.314;2022-11-15T13:54:28;62.53;;;36.88;;
60257;SDS011;46115;44.484;11.314;2022-11-15T13:58:32;62.22;;;36.50;;
60257;SDS011;46115;44.484;11.314;2022-11-15T14:02:36;66.68;;;37.42;;
60257;SDS011;46115;44.484;11.314;2022-11-15T14:06:43;67.55;;;38.70;;
60257;SDS011;46115;44.484;11.314;2022-11-15T14:10:47;67.00;;;37.47;;
60257;SDS011;46115;44.484;11.314;2022-11-15T14:14:50;65.13;;;36.78;;
60257;SDS011;46115;44.484;11.314;2022-11-15T14:18:54;64.90;;;37.13;;
60257;SDS011;46115;44.484;11.314;2022-11-15T14:22:57;71.95;;;38.78;;
60257;SDS011;46115;44.484;11.314;2022-11-15T14:27:15;70.05;;;37.88;;
60257;SDS011;46115;44.484;11.314;2022-11-15T14:31:18;67.95;;;37.42;;
60257;SDS011;46115;44.484;11.314;2022-11-15T14:35:24;69.13;;;38.22;;
60257;SDS011;46115;44.484;11.314;2022-11-15T14:39:26;67.45;;;37.72;;
60257;SDS011;46115;44.484;11.314;2022-11-15T14:47:31;67.05;;;37.70;;
60257;SDS011;46115;44.484;11.314;2022-11-15T14:51:35;73.30;;;39.17;;
60257;SDS011;46115;44.484;11.314;2022-11-15T14:55:37;68.90;;;38.83;;
60257;SDS011;46115;44.484;11.314;2022-11-15T14:59:40;79.55;;;40.67;;
60257;SDS011;46115;44.484;11.314;2022-11-15T15:07:46;72.57;;;40.22;;
60257;SDS011;46115;44.484;11.314;2022-11-15T15:11:49;71.45;;;38.08;;
60257;SDS011;46115;44.484;11.314;2022-11-15T15:15:52;72.03;;;38.75;;
60257;SDS011;46115;44.484;11.314;2022-11-15T15:19:54;69.88;;;39.05;;
60257;SDS011;46115;44.484;11.314;2022-11-15T15:28:01;72.55;;;38.05;;
60257;SDS011;46115;44.484;11.314;2022-11-15T15:32:04;79.75;;;40.90;;
60257;SDS011;46115;44.484;11.314;2022-11-15T15:36:08;72.10;;;37.90;;
60257;SDS011;46115;44.484;11.314;2022-11-15T15:40:15;75.57;;;39.28;;
60257;SDS011;46115;44.484;11.314;2022-11-15T15:44:19;71.43;;;38.33;;
60257;SDS011;46115;44.484;11.314;2022-11-15T15:52:23;71.67;;;37.90;;
60257;SDS011;46115;44.484;11.314;2022-11-15T15:56:27;70.10;;;37.45;;
60257;SDS011;46115;44.484;11.314;2022-11-15T16:00:30;72.82;;;39.88;;
60257;SDS011;46115;44.484;11.314;2022-11-15T16:04:33;75.40;;;40.30;;
60257;SDS011;46115;44.484;11.314;2022-11-15T23:06:09;79.75;;;30.88;;
60257;SDS011;46115;44.484;11.314;2022-11-15T23:10:11;89.07;;;33.58;;
60257;SDS011;46115;44.484;11.314;2022-11-15T23:14:31;87.45;;;30.92;;
60257;SDS011;46115;44.484;11.314;2022-11-15T23:18:34;75.43;;;30.35;;
60257;SDS011;46115;44.484;11.314;2022-11-15T23:22:39;70.30;;;29.38;;
60257;SDS011;46115;44.484;11.314;2022-11-15T23:26:48;77.68;;;30.33;;
60257;SDS011;46115;44.484;11.314;2022-11-15T23:30:51;79.55;;;30.70;;
60257;SDS011;46115;44.484;11.314;2022-11-15T23:35:11;72.70;;;30.08;;
60257;SDS011;46115;44.484;11.314;2022-11-15T23:39:15;69.88;;;29.15;;
60257;SDS011;46115;44.484;11.314;2022-11-15T23:43:17;72.60;;;29.98;;
60257;SDS011;46115;44.484;11.314;2022-11-15T23:47:20;61.05;;;27.95;;
60257;SDS011;46115;44.484;11.314;2022-11-15T23:51:23;63.92;;;28.52;;
60257;SDS011;46115;44.484;11.314;2022-11-15T23:55:27;70.95;;;29.60;;
60257;SDS011;46115;44.484;11.314;2022-11-15T23:59:30;70.90;;;29.10;;
